DAL8866 KMSP-KLAX
Flight info
| Callsign | DAL8866 |
|---|---|
| Flight time | 3h 10m |
| Altitude | 40000 |
| Route | SCHEP1 RXANN TEYOU LLUKY BFF HVE VERKN HAKMN ANJLL4 |
| Aircraft | A359/H-SDE2E3GHIJ3J4J5LM1ORWXY/LB1D1 |
Departure
| Time | 2026-04-20 15:09 |
|---|---|
| Airport | Minneapolis–Saint Paul International Airport / Wold–Chamberlain Field (KMSP) |
Arrival
| Time | 2026-04-20 18:20 |
|---|---|
| Airport | Los Angeles International Airport (KLAX) |
| Time | Latitude | Longitude | Altitude | Speed | Heading |
|---|---|---|---|---|---|
| 2026-04-20 14:33 | 44.88086 | -93.21139 | 831 ft | 0 kts | 37° |
| 2026-04-20 14:58 | 44.88080 | -93.21145 | 823 ft | 3 kts | 32° |
| 2026-04-20 14:59 | 44.88062 | -93.21157 | 827 ft | 3 kts | 13° |
| 2026-04-20 14:59 | 44.88043 | -93.21163 | 822 ft | 2 kts | 20° |
| 2026-04-20 14:59 | 44.88033 | -93.21169 | 824 ft | 3 kts | 15° |
| 2026-04-20 14:59 | 44.88017 | -93.21172 | 824 ft | 3 kts | 328° |
| 2026-04-20 15:00 | 44.88008 | -93.21156 | 831 ft | 3 kts | 276° |
| 2026-04-20 15:00 | 44.88007 | -93.21128 | 825 ft | 2 kts | 275° |
| 2026-04-20 15:00 | 44.88006 | -93.21119 | 829 ft | 2 kts | 278° |
| 2026-04-20 15:03 | 44.88008 | -93.21137 | 826 ft | 4 kts | 278° |
| 2026-04-20 15:03 | 44.88011 | -93.21209 | 846 ft | 10 kts | 272° |
| 2026-04-20 15:04 | 44.88022 | -93.21330 | 823 ft | 15 kts | 281° |
| 2026-04-20 15:04 | 44.88064 | -93.21470 | 826 ft | 17 kts | 300° |
| 2026-04-20 15:04 | 44.88109 | -93.21574 | 824 ft | 20 kts | 301° |
| 2026-04-20 15:04 | 44.88221 | -93.21832 | 825 ft | 25 kts | 301° |
| 2026-04-20 15:05 | 44.88304 | -93.22023 | 825 ft | 7 kts | 301° |
| 2026-04-20 15:05 | 44.88327 | -93.22075 | 826 ft | 8 kts | 301° |
| 2026-04-20 15:05 | 44.88359 | -93.22150 | 825 ft | 10 kts | 301° |
| 2026-04-20 15:05 | 44.88402 | -93.22249 | 824 ft | 14 kts | 301° |
| 2026-04-20 15:06 | 44.88456 | -93.22375 | 822 ft | 16 kts | 301° |
| 2026-04-20 15:06 | 44.88514 | -93.22509 | 823 ft | 15 kts | 301° |
| 2026-04-20 15:06 | 44.88573 | -93.22643 | 823 ft | 17 kts | 301° |
| 2026-04-20 15:06 | 44.88639 | -93.22797 | 831 ft | 19 kts | 301° |
| 2026-04-20 15:07 | 44.88712 | -93.22965 | 825 ft | 21 kts | 302° |
| 2026-04-20 15:07 | 44.88790 | -93.23147 | 830 ft | 23 kts | 301° |
| 2026-04-20 15:07 | 44.88872 | -93.23334 | 825 ft | 20 kts | 301° |
| 2026-04-20 15:07 | 44.88947 | -93.23505 | 826 ft | 21 kts | 302° |
| 2026-04-20 15:08 | 44.88958 | -93.23587 | 822 ft | 6 kts | 233° |
| 2026-04-20 15:08 | 44.88883 | -93.23621 | 826 ft | 14 kts | 162° |
| 2026-04-20 15:08 | 44.88826 | -93.23524 | 823 ft | 13 kts | 121° |
| 2026-04-20 15:08 | 44.88777 | -93.23410 | 826 ft | 19 kts | 122° |
| 2026-04-20 15:09 | 44.88599 | -93.23000 | 829 ft | 82 kts | 121° |
| 2026-04-20 15:09 | 44.88202 | -93.22084 | 826 ft | 137 kts | 121° |
| 2026-04-20 15:09 | 44.87665 | -93.20809 | 1212 ft | 151 kts | 124° |
| 2026-04-20 15:09 | 44.87132 | -93.19536 | 1843 ft | 158 kts | 126° |
| 2026-04-20 15:10 | 44.86732 | -93.18585 | 2093 ft | 174 kts | 126° |
| 2026-04-20 15:10 | 44.86089 | -93.17054 | 2507 ft | 191 kts | 126° |
| 2026-04-20 15:10 | 44.85318 | -93.15438 | 2751 ft | 211 kts | 137° |
| 2026-04-20 15:10 | 44.84017 | -93.14412 | 3063 ft | 222 kts | 171° |
| 2026-04-20 15:11 | 44.82482 | -93.14597 | 3651 ft | 226 kts | 203° |
| 2026-04-20 15:11 | 44.81086 | -93.15661 | 4287 ft | 231 kts | 215° |
| 2026-04-20 15:11 | 44.79906 | -93.17217 | 4933 ft | 235 kts | 234° |
| 2026-04-20 15:11 | 44.79083 | -93.19222 | 5596 ft | 238 kts | 247° |
| 2026-04-20 15:12 | 44.78500 | -93.21422 | 6268 ft | 241 kts | 252° |
| 2026-04-20 15:12 | 44.77969 | -93.23668 | 6942 ft | 243 kts | 255° |
| 2026-04-20 15:12 | 44.77464 | -93.25940 | 7590 ft | 244 kts | 256° |
| 2026-04-20 15:12 | 44.76974 | -93.28231 | 8282 ft | 245 kts | 257° |
| 2026-04-20 15:13 | 44.76499 | -93.30505 | 8938 ft | 246 kts | 258° |
| 2026-04-20 15:13 | 44.76021 | -93.32821 | 9645 ft | 247 kts | 259° |
| 2026-04-20 15:13 | 44.75543 | -93.35151 | 10321 ft | 248 kts | 260° |
| 2026-04-20 15:13 | 44.75064 | -93.37496 | 10907 ft | 251 kts | 260° |
| 2026-04-20 15:14 | 44.74581 | -93.39864 | 11482 ft | 253 kts | 260° |
| 2026-04-20 15:14 | 44.74092 | -93.42262 | 12047 ft | 258 kts | 260° |
| 2026-04-20 15:14 | 44.73585 | -93.44761 | 12339 ft | 273 kts | 259° |
| 2026-04-20 15:14 | 44.73047 | -93.47409 | 12599 ft | 288 kts | 259° |
| 2026-04-20 15:15 | 44.72478 | -93.50196 | 12844 ft | 303 kts | 259° |
| 2026-04-20 15:15 | 44.71888 | -93.53070 | 13075 ft | 316 kts | 259° |
| 2026-04-20 15:15 | 44.71268 | -93.56083 | 13438 ft | 325 kts | 258° |
| 2026-04-20 15:15 | 44.70628 | -93.59157 | 13960 ft | 329 kts | 258° |
| 2026-04-20 15:16 | 44.69747 | -93.62167 | 14430 ft | 339 kts | 246° |
| 2026-04-20 15:16 | 44.68431 | -93.64958 | 14896 ft | 346 kts | 240° |
| 2026-04-20 15:16 | 44.66998 | -93.67701 | 15358 ft | 350 kts | 240° |
| 2026-04-20 15:16 | 44.65546 | -93.70459 | 15823 ft | 353 kts | 240° |
| 2026-04-20 15:17 | 44.64085 | -93.73246 | 16283 ft | 356 kts | 240° |
| 2026-04-20 15:17 | 44.62614 | -93.76059 | 16762 ft | 359 kts | 241° |
| 2026-04-20 15:17 | 44.61131 | -93.78898 | 17205 ft | 362 kts | 241° |
| 2026-04-20 15:17 | 44.59637 | -93.81759 | 17612 ft | 365 kts | 241° |
| 2026-04-20 15:18 | 44.58126 | -93.84652 | 18033 ft | 368 kts | 241° |
| 2026-04-20 15:18 | 44.56607 | -93.87568 | 18477 ft | 371 kts | 241° |
| 2026-04-20 15:18 | 44.55073 | -93.90499 | 18860 ft | 374 kts | 241° |
| 2026-04-20 15:18 | 44.53544 | -93.93415 | 19201 ft | 377 kts | 241° |
| 2026-04-20 15:19 | 44.51979 | -93.96399 | 19578 ft | 380 kts | 241° |
| 2026-04-20 15:19 | 44.50408 | -93.99390 | 19945 ft | 382 kts | 241° |
| 2026-04-20 15:19 | 44.48831 | -94.02394 | 20342 ft | 384 kts | 241° |
| 2026-04-20 15:19 | 44.47240 | -94.05420 | 20709 ft | 387 kts | 242° |
| 2026-04-20 15:20 | 44.45642 | -94.08456 | 21084 ft | 389 kts | 242° |
| 2026-04-20 15:20 | 44.44032 | -94.11513 | 21457 ft | 391 kts | 242° |
| 2026-04-20 15:20 | 44.42409 | -94.14591 | 21808 ft | 393 kts | 242° |
| 2026-04-20 15:20 | 44.40781 | -94.17685 | 22159 ft | 396 kts | 242° |
| 2026-04-20 15:21 | 44.39158 | -94.20750 | 22474 ft | 398 kts | 241° |
| 2026-04-20 15:21 | 44.37505 | -94.23868 | 22838 ft | 400 kts | 242° |
| 2026-04-20 15:21 | 44.35844 | -94.26999 | 23185 ft | 402 kts | 242° |
| 2026-04-20 15:21 | 44.34176 | -94.30141 | 23514 ft | 404 kts | 242° |
| 2026-04-20 15:22 | 44.32496 | -94.33303 | 23797 ft | 407 kts | 241° |
| 2026-04-20 15:22 | 44.30804 | -94.36483 | 24070 ft | 409 kts | 241° |
| 2026-04-20 15:22 | 44.29104 | -94.39676 | 24398 ft | 411 kts | 241° |
| 2026-04-20 15:22 | 44.27396 | -94.42881 | 24665 ft | 412 kts | 241° |
| 2026-04-20 15:23 | 44.25679 | -94.46099 | 24934 ft | 414 kts | 242° |
| 2026-04-20 15:23 | 44.23955 | -94.49332 | 25220 ft | 415 kts | 242° |
| 2026-04-20 15:23 | 44.22226 | -94.52576 | 25492 ft | 417 kts | 242° |
| 2026-04-20 15:23 | 44.20488 | -94.55822 | 25772 ft | 419 kts | 241° |
| 2026-04-20 15:24 | 44.18737 | -94.59087 | 26044 ft | 420 kts | 241° |
| 2026-04-20 15:24 | 44.16987 | -94.62348 | 26372 ft | 421 kts | 241° |
| 2026-04-20 15:24 | 44.15251 | -94.65582 | 26659 ft | 423 kts | 241° |
| 2026-04-20 15:24 | 44.13482 | -94.68875 | 27013 ft | 425 kts | 241° |
| 2026-04-20 15:25 | 44.11706 | -94.72178 | 27295 ft | 427 kts | 241° |
| 2026-04-20 15:25 | 44.09916 | -94.75503 | 27584 ft | 430 kts | 241° |
| 2026-04-20 15:25 | 44.08117 | -94.78838 | 27910 ft | 432 kts | 241° |
| 2026-04-20 15:25 | 44.06311 | -94.82186 | 28255 ft | 434 kts | 241° |
| 2026-04-20 15:26 | 44.04489 | -94.85557 | 28576 ft | 436 kts | 241° |
| 2026-04-20 15:26 | 44.02664 | -94.88931 | 28917 ft | 438 kts | 241° |
| 2026-04-20 15:26 | 44.00827 | -94.92323 | 29251 ft | 440 kts | 241° |
| 2026-04-20 15:26 | 43.98979 | -94.95740 | 29549 ft | 442 kts | 241° |
| 2026-04-20 15:27 | 43.97160 | -94.99183 | 29981 ft | 442 kts | 242° |
| 2026-04-20 15:27 | 43.95363 | -95.02649 | 30337 ft | 444 kts | 242° |
| 2026-04-20 15:27 | 43.93584 | -95.06104 | 30618 ft | 446 kts | 242° |
| 2026-04-20 15:27 | 43.91774 | -95.09616 | 30911 ft | 449 kts | 242° |
| 2026-04-20 15:28 | 43.89951 | -95.13141 | 31167 ft | 452 kts | 242° |
| 2026-04-20 15:28 | 43.88111 | -95.16682 | 31481 ft | 454 kts | 242° |
| 2026-04-20 15:28 | 43.86258 | -95.20233 | 31773 ft | 456 kts | 242° |
| 2026-04-20 15:28 | 43.84392 | -95.23799 | 32060 ft | 458 kts | 242° |
| 2026-04-20 15:29 | 43.82514 | -95.27382 | 32369 ft | 460 kts | 242° |
| 2026-04-20 15:29 | 43.80628 | -95.30972 | 32661 ft | 462 kts | 242° |
| 2026-04-20 15:29 | 43.78735 | -95.34573 | 32929 ft | 463 kts | 242° |
| 2026-04-20 15:29 | 43.76833 | -95.38184 | 33244 ft | 464 kts | 242° |
| 2026-04-20 15:30 | 43.74930 | -95.41795 | 33483 ft | 466 kts | 242° |
| 2026-04-20 15:30 | 43.73015 | -95.45426 | 33729 ft | 468 kts | 242° |
| 2026-04-20 15:30 | 43.71089 | -95.49076 | 33962 ft | 470 kts | 242° |
| 2026-04-20 15:30 | 43.69160 | -95.52725 | 34179 ft | 472 kts | 242° |
| 2026-04-20 15:31 | 43.67218 | -95.56394 | 34375 ft | 474 kts | 242° |
| 2026-04-20 15:31 | 43.65268 | -95.60073 | 34576 ft | 475 kts | 242° |
| 2026-04-20 15:31 | 43.63335 | -95.63714 | 34837 ft | 476 kts | 242° |
| 2026-04-20 15:31 | 43.61375 | -95.67400 | 35138 ft | 475 kts | 242° |
| 2026-04-20 15:32 | 43.59420 | -95.71069 | 35444 ft | 474 kts | 242° |
| 2026-04-20 15:32 | 43.57473 | -95.74717 | 35794 ft | 471 kts | 241° |
| 2026-04-20 15:32 | 43.55529 | -95.78357 | 36137 ft | 470 kts | 241° |
| 2026-04-20 15:32 | 43.53592 | -95.81984 | 36416 ft | 469 kts | 241° |
| 2026-04-20 15:33 | 43.51657 | -95.85605 | 36684 ft | 469 kts | 241° |
| 2026-04-20 15:33 | 43.49720 | -95.89227 | 36955 ft | 469 kts | 241° |
| 2026-04-20 15:33 | 43.47787 | -95.92836 | 37217 ft | 468 kts | 241° |
| 2026-04-20 15:33 | 43.45856 | -95.96434 | 37449 ft | 468 kts | 241° |
| 2026-04-20 15:34 | 43.43917 | -96.00046 | 37706 ft | 468 kts | 241° |
| 2026-04-20 15:34 | 43.41986 | -96.03636 | 37963 ft | 467 kts | 241° |
| 2026-04-20 15:34 | 43.40054 | -96.07221 | 38230 ft | 466 kts | 241° |
| 2026-04-20 15:34 | 43.38124 | -96.10799 | 38466 ft | 465 kts | 241° |
| 2026-04-20 15:35 | 43.36199 | -96.14363 | 38750 ft | 464 kts | 241° |
| 2026-04-20 15:35 | 43.34277 | -96.17919 | 38966 ft | 463 kts | 241° |
| 2026-04-20 15:35 | 43.32356 | -96.21468 | 39136 ft | 463 kts | 241° |
| 2026-04-20 15:35 | 43.30459 | -96.25036 | 39280 ft | 460 kts | 244° |
| 2026-04-20 15:36 | 43.28831 | -96.28771 | 39408 ft | 453 kts | 250° |
| 2026-04-20 15:36 | 43.27442 | -96.32645 | 39538 ft | 451 kts | 252° |
| 2026-04-20 15:36 | 43.26123 | -96.36544 | 39689 ft | 450 kts | 253° |
| 2026-04-20 15:37 | 43.23571 | -96.44382 | 39892 ft | 450 kts | 253° |
| 2026-04-20 15:37 | 43.22302 | -96.48311 | 39995 ft | 451 kts | 253° |
| 2026-04-20 15:37 | 43.21028 | -96.52238 | 40128 ft | 451 kts | 252° |
| 2026-04-20 15:38 | 43.18463 | -96.60083 | 40206 ft | 452 kts | 252° |
| 2026-04-20 15:38 | 43.15897 | -96.67873 | 40206 ft | 451 kts | 252° |
| 2026-04-20 15:39 | 43.13303 | -96.75717 | 40208 ft | 451 kts | 252° |
| 2026-04-20 15:39 | 43.10704 | -96.83554 | 40209 ft | 452 kts | 252° |
| 2026-04-20 15:40 | 43.08105 | -96.91373 | 40207 ft | 451 kts | 252° |
| 2026-04-20 15:40 | 43.05502 | -96.99176 | 40203 ft | 451 kts | 252° |
| 2026-04-20 15:41 | 43.02893 | -97.06977 | 40191 ft | 451 kts | 252° |
| 2026-04-20 15:41 | 43.00281 | -97.14767 | 40161 ft | 451 kts | 252° |
| 2026-04-20 15:42 | 42.97677 | -97.22511 | 40164 ft | 451 kts | 251° |
| 2026-04-20 15:42 | 42.95052 | -97.30294 | 40156 ft | 451 kts | 251° |
| 2026-04-20 15:43 | 42.92421 | -97.38071 | 40155 ft | 451 kts | 251° |
| 2026-04-20 15:43 | 42.89785 | -97.45842 | 40156 ft | 451 kts | 251° |
| 2026-04-20 15:44 | 42.87144 | -97.53603 | 40203 ft | 451 kts | 251° |
| 2026-04-20 15:44 | 42.84497 | -97.61364 | 40175 ft | 451 kts | 251° |
| 2026-04-20 15:45 | 42.81848 | -97.69105 | 40185 ft | 450 kts | 251° |
| 2026-04-20 15:45 | 42.79213 | -97.76784 | 40191 ft | 450 kts | 251° |
| 2026-04-20 15:46 | 42.76557 | -97.84505 | 40173 ft | 450 kts | 251° |
| 2026-04-20 15:46 | 42.73896 | -97.92218 | 40163 ft | 450 kts | 251° |
| 2026-04-20 15:47 | 42.71230 | -97.99925 | 40154 ft | 450 kts | 250° |
| 2026-04-20 15:47 | 42.68560 | -98.07618 | 40149 ft | 450 kts | 250° |
| 2026-04-20 15:48 | 42.65888 | -98.15300 | 40145 ft | 450 kts | 250° |
| 2026-04-20 15:48 | 42.63202 | -98.22998 | 40138 ft | 450 kts | 250° |
| 2026-04-20 15:49 | 42.60519 | -98.30670 | 40137 ft | 450 kts | 250° |
| 2026-04-20 15:49 | 42.57845 | -98.38292 | 40122 ft | 450 kts | 250° |
| 2026-04-20 15:50 | 42.55153 | -98.45942 | 40115 ft | 449 kts | 250° |
| 2026-04-20 15:50 | 42.52455 | -98.53591 | 40110 ft | 449 kts | 250° |
| 2026-04-20 15:51 | 42.49838 | -98.61269 | 40109 ft | 446 kts | 255° |
| 2026-04-20 15:51 | 42.48335 | -98.69311 | 40110 ft | 438 kts | 265° |
| 2026-04-20 15:52 | 42.47438 | -98.77464 | 40109 ft | 438 kts | 266° |
| 2026-04-20 15:52 | 42.46633 | -98.85641 | 40109 ft | 438 kts | 266° |
| 2026-04-20 15:53 | 42.45402 | -98.97856 | 40107 ft | 438 kts | 266° |
| 2026-04-20 15:53 | 42.44554 | -99.06026 | 40106 ft | 438 kts | 266° |
| 2026-04-20 15:54 | 42.43696 | -99.14194 | 40099 ft | 438 kts | 265° |
| 2026-04-20 15:54 | 42.42837 | -99.22317 | 40100 ft | 438 kts | 265° |
| 2026-04-20 15:55 | 42.41969 | -99.30477 | 40094 ft | 438 kts | 265° |
| 2026-04-20 15:55 | 42.41096 | -99.38633 | 40094 ft | 438 kts | 265° |
| 2026-04-20 15:56 | 42.40366 | -99.45411 | 40092 ft | 438 kts | 265° |
| 2026-04-20 15:56 | 42.39481 | -99.53572 | 40090 ft | 438 kts | 265° |
| 2026-04-20 15:57 | 42.38589 | -99.61744 | 40078 ft | 438 kts | 265° |
| 2026-04-20 15:57 | 42.37692 | -99.69905 | 40072 ft | 438 kts | 265° |
| 2026-04-20 15:58 | 42.36794 | -99.78011 | 40072 ft | 438 kts | 265° |
| 2026-04-20 15:58 | 42.35886 | -99.86173 | 40063 ft | 438 kts | 265° |
| 2026-04-20 15:59 | 42.34972 | -99.94321 | 40068 ft | 438 kts | 265° |
| 2026-04-20 15:59 | 42.34052 | -100.02469 | 40070 ft | 438 kts | 264° |
| 2026-04-20 16:00 | 42.33127 | -100.10613 | 40075 ft | 438 kts | 264° |
| 2026-04-20 16:00 | 42.32196 | -100.18749 | 40077 ft | 438 kts | 264° |
| 2026-04-20 16:01 | 42.31266 | -100.26839 | 40073 ft | 439 kts | 264° |
| 2026-04-20 16:01 | 42.30320 | -100.35002 | 40071 ft | 439 kts | 264° |
| 2026-04-20 16:02 | 42.29370 | -100.43152 | 40061 ft | 439 kts | 264° |
| 2026-04-20 16:02 | 42.28413 | -100.51305 | 40061 ft | 439 kts | 264° |
| 2026-04-20 16:03 | 42.27452 | -100.59452 | 40043 ft | 439 kts | 264° |
| 2026-04-20 16:03 | 42.26484 | -100.67601 | 40061 ft | 439 kts | 264° |
| 2026-04-20 16:04 | 42.25510 | -100.75742 | 40041 ft | 439 kts | 264° |
| 2026-04-20 16:04 | 42.24530 | -100.83882 | 40038 ft | 439 kts | 263° |
| 2026-04-20 16:05 | 42.23552 | -100.91965 | 40044 ft | 439 kts | 263° |
| 2026-04-20 16:05 | 42.22561 | -101.00104 | 40035 ft | 439 kts | 263° |
| 2026-04-20 16:06 | 42.21565 | -101.08234 | 40024 ft | 439 kts | 263° |
| 2026-04-20 16:06 | 42.20568 | -101.16321 | 40023 ft | 439 kts | 263° |
| 2026-04-20 16:07 | 42.19560 | -101.24448 | 40037 ft | 439 kts | 263° |
| 2026-04-20 16:07 | 42.18547 | -101.32570 | 40020 ft | 439 kts | 263° |
| 2026-04-20 16:08 | 42.17530 | -101.40674 | 40018 ft | 438 kts | 263° |
| 2026-04-20 16:08 | 42.16507 | -101.48774 | 40019 ft | 438 kts | 263° |
| 2026-04-20 16:09 | 42.15479 | -101.56867 | 40017 ft | 438 kts | 263° |
| 2026-04-20 16:09 | 42.14446 | -101.64958 | 40014 ft | 438 kts | 263° |
| 2026-04-20 16:10 | 42.13406 | -101.73055 | 40012 ft | 439 kts | 262° |
| 2026-04-20 16:10 | 42.12360 | -101.81152 | 40021 ft | 439 kts | 262° |
| 2026-04-20 16:11 | 42.11307 | -101.89249 | 40016 ft | 439 kts | 262° |
| 2026-04-20 16:11 | 42.10248 | -101.97345 | 40017 ft | 439 kts | 262° |
| 2026-04-20 16:12 | 42.09185 | -102.05437 | 40006 ft | 439 kts | 262° |
| 2026-04-20 16:12 | 42.08121 | -102.13483 | 40018 ft | 439 kts | 262° |
| 2026-04-20 16:13 | 42.07045 | -102.21576 | 40018 ft | 439 kts | 262° |
| 2026-04-20 16:13 | 42.05962 | -102.29674 | 40018 ft | 439 kts | 262° |
| 2026-04-20 16:14 | 42.04875 | -102.37758 | 40025 ft | 439 kts | 262° |
| 2026-04-20 16:14 | 42.03781 | -102.45855 | 40035 ft | 439 kts | 262° |
| 2026-04-20 16:15 | 42.02683 | -102.53929 | 40043 ft | 438 kts | 262° |
| 2026-04-20 16:15 | 42.01587 | -102.61946 | 40053 ft | 438 kts | 262° |
| 2026-04-20 16:16 | 42.00479 | -102.70004 | 40064 ft | 438 kts | 262° |
| 2026-04-20 16:16 | 41.99366 | -102.78066 | 40061 ft | 438 kts | 261° |
| 2026-04-20 16:17 | 41.98246 | -102.86123 | 40064 ft | 438 kts | 261° |
| 2026-04-20 16:17 | 41.97122 | -102.94173 | 40055 ft | 438 kts | 261° |
| 2026-04-20 16:18 | 41.95992 | -103.02219 | 40044 ft | 438 kts | 261° |
| 2026-04-20 16:18 | 41.94856 | -103.10261 | 40037 ft | 438 kts | 261° |
| 2026-04-20 16:19 | 41.93715 | -103.18302 | 40030 ft | 438 kts | 261° |
| 2026-04-20 16:19 | 41.92576 | -103.26286 | 40052 ft | 437 kts | 261° |
| 2026-04-20 16:20 | 41.91424 | -103.34318 | 40065 ft | 437 kts | 261° |
| 2026-04-20 16:20 | 41.90267 | -103.42339 | 40080 ft | 437 kts | 261° |
| 2026-04-20 16:21 | 41.88431 | -103.50136 | 40090 ft | 441 kts | 247° |
| 2026-04-20 16:21 | 41.85561 | -103.57379 | 40091 ft | 443 kts | 243° |
| 2026-04-20 16:22 | 41.82474 | -103.64538 | 40091 ft | 443 kts | 243° |
| 2026-04-20 16:22 | 41.79362 | -103.71675 | 40083 ft | 443 kts | 243° |
| 2026-04-20 16:23 | 41.76262 | -103.78822 | 40063 ft | 444 kts | 243° |
| 2026-04-20 16:23 | 41.73159 | -103.85997 | 40048 ft | 445 kts | 243° |
| 2026-04-20 16:24 | 41.70059 | -103.93158 | 40024 ft | 444 kts | 242° |
| 2026-04-20 16:24 | 41.66955 | -104.00307 | 40013 ft | 444 kts | 242° |
| 2026-04-20 16:25 | 41.63867 | -104.07400 | 40008 ft | 444 kts | 242° |
| 2026-04-20 16:25 | 41.60755 | -104.14531 | 40007 ft | 444 kts | 242° |
| 2026-04-20 16:26 | 41.57637 | -104.21658 | 40007 ft | 444 kts | 242° |
| 2026-04-20 16:26 | 41.54512 | -104.28788 | 40018 ft | 446 kts | 242° |
| 2026-04-20 16:27 | 41.51368 | -104.35940 | 40018 ft | 446 kts | 242° |
| 2026-04-20 16:27 | 41.48217 | -104.43092 | 40011 ft | 447 kts | 242° |
| 2026-04-20 16:28 | 41.45075 | -104.50207 | 40023 ft | 448 kts | 242° |
| 2026-04-20 16:28 | 41.41908 | -104.57361 | 40036 ft | 448 kts | 242° |
| 2026-04-20 16:29 | 41.38736 | -104.64509 | 40072 ft | 448 kts | 242° |
| 2026-04-20 16:29 | 41.35559 | -104.71652 | 40105 ft | 448 kts | 242° |
| 2026-04-20 16:30 | 41.32374 | -104.78796 | 40133 ft | 448 kts | 242° |
| 2026-04-20 16:30 | 41.29190 | -104.85921 | 40159 ft | 448 kts | 242° |
| 2026-04-20 16:31 | 41.26021 | -104.92997 | 40154 ft | 448 kts | 242° |
| 2026-04-20 16:31 | 41.22822 | -105.00122 | 40017 ft | 449 kts | 242° |
| 2026-04-20 16:32 | 41.19614 | -105.07251 | 40010 ft | 450 kts | 241° |
| 2026-04-20 16:32 | 41.16397 | -105.14382 | 40038 ft | 451 kts | 241° |
| 2026-04-20 16:33 | 41.13172 | -105.21515 | 40038 ft | 451 kts | 241° |
| 2026-04-20 16:33 | 41.09943 | -105.28639 | 40036 ft | 451 kts | 241° |
| 2026-04-20 16:34 | 41.06714 | -105.35747 | 40061 ft | 449 kts | 241° |
| 2026-04-20 16:34 | 41.03491 | -105.42824 | 40074 ft | 448 kts | 241° |
| 2026-04-20 16:35 | 41.00266 | -105.49892 | 40072 ft | 448 kts | 241° |
| 2026-04-20 16:35 | 40.97038 | -105.56948 | 40072 ft | 448 kts | 241° |
| 2026-04-20 16:36 | 40.93825 | -105.63957 | 40077 ft | 448 kts | 241° |
| 2026-04-20 16:36 | 40.90581 | -105.71014 | 40106 ft | 448 kts | 241° |
| 2026-04-20 16:37 | 40.87345 | -105.78038 | 40108 ft | 447 kts | 241° |
| 2026-04-20 16:37 | 40.84114 | -105.85036 | 40148 ft | 446 kts | 241° |
| 2026-04-20 16:38 | 40.80877 | -105.92033 | 40148 ft | 446 kts | 241° |
| 2026-04-20 16:38 | 40.77638 | -105.99018 | 40152 ft | 446 kts | 241° |
| 2026-04-20 16:39 | 40.74410 | -106.05962 | 40164 ft | 447 kts | 240° |
| 2026-04-20 16:39 | 40.71156 | -106.12949 | 40186 ft | 447 kts | 240° |
| 2026-04-20 16:40 | 40.67889 | -106.19944 | 40186 ft | 447 kts | 240° |
| 2026-04-20 16:40 | 40.64625 | -106.26919 | 40190 ft | 447 kts | 240° |
| 2026-04-20 16:41 | 40.61351 | -106.33898 | 40190 ft | 447 kts | 240° |
| 2026-04-20 16:41 | 40.58096 | -106.40821 | 40203 ft | 448 kts | 240° |
| 2026-04-20 16:42 | 40.54810 | -106.47796 | 40222 ft | 448 kts | 240° |
| 2026-04-20 16:42 | 40.51517 | -106.54768 | 40240 ft | 449 kts | 240° |
| 2026-04-20 16:43 | 40.48218 | -106.61736 | 40255 ft | 449 kts | 240° |
| 2026-04-20 16:43 | 40.44920 | -106.68689 | 40268 ft | 448 kts | 240° |
| 2026-04-20 16:44 | 40.41614 | -106.75642 | 40275 ft | 449 kts | 240° |
| 2026-04-20 16:44 | 40.38319 | -106.82558 | 40270 ft | 450 kts | 240° |
| 2026-04-20 16:45 | 40.34997 | -106.89514 | 40237 ft | 450 kts | 240° |
| 2026-04-20 16:45 | 40.32207 | -106.95343 | 40237 ft | 450 kts | 240° |
| 2026-04-20 16:46 | 40.28896 | -107.02251 | 40229 ft | 450 kts | 240° |
| 2026-04-20 16:46 | 40.25558 | -107.09199 | 40240 ft | 451 kts | 240° |
| 2026-04-20 16:47 | 40.22202 | -107.16163 | 40236 ft | 452 kts | 240° |
| 2026-04-20 16:47 | 40.18847 | -107.23111 | 40222 ft | 452 kts | 240° |
| 2026-04-20 16:48 | 40.15486 | -107.30056 | 40208 ft | 451 kts | 240° |
| 2026-04-20 16:48 | 40.12123 | -107.36989 | 40188 ft | 452 kts | 239° |
| 2026-04-20 16:49 | 40.08777 | -107.43875 | 40196 ft | 452 kts | 239° |
| 2026-04-20 16:49 | 40.05395 | -107.50817 | 40191 ft | 453 kts | 239° |
| 2026-04-20 16:50 | 40.02008 | -107.57756 | 40187 ft | 453 kts | 239° |
| 2026-04-20 16:50 | 39.98615 | -107.64691 | 40172 ft | 453 kts | 239° |
| 2026-04-20 16:51 | 39.95222 | -107.71613 | 40174 ft | 453 kts | 239° |
| 2026-04-20 16:51 | 39.91820 | -107.78537 | 40155 ft | 454 kts | 239° |
| 2026-04-20 16:52 | 39.88409 | -107.85466 | 40228 ft | 455 kts | 239° |
| 2026-04-20 16:52 | 39.84985 | -107.92402 | 40208 ft | 455 kts | 239° |
| 2026-04-20 16:53 | 39.81574 | -107.99300 | 40192 ft | 455 kts | 239° |
| 2026-04-20 16:53 | 39.78144 | -108.06217 | 40161 ft | 455 kts | 239° |
| 2026-04-20 16:54 | 39.74707 | -108.13146 | 40138 ft | 456 kts | 239° |
| 2026-04-20 16:54 | 39.71263 | -108.20062 | 40122 ft | 456 kts | 239° |
| 2026-04-20 16:55 | 39.67817 | -108.26960 | 40121 ft | 455 kts | 239° |
| 2026-04-20 16:55 | 39.64368 | -108.33856 | 40119 ft | 455 kts | 239° |
| 2026-04-20 16:56 | 39.60936 | -108.40700 | 40121 ft | 455 kts | 239° |
| 2026-04-20 16:56 | 39.57474 | -108.47588 | 40110 ft | 457 kts | 239° |
| 2026-04-20 16:57 | 39.53994 | -108.54495 | 40111 ft | 458 kts | 239° |
| 2026-04-20 16:57 | 39.50512 | -108.61401 | 40092 ft | 458 kts | 239° |
| 2026-04-20 16:58 | 39.47022 | -108.68309 | 40095 ft | 458 kts | 239° |
| 2026-04-20 16:58 | 39.43525 | -108.75212 | 40086 ft | 458 kts | 239° |
| 2026-04-20 16:59 | 39.40027 | -108.82102 | 40082 ft | 458 kts | 239° |
| 2026-04-20 16:59 | 39.36542 | -108.88950 | 40083 ft | 459 kts | 239° |
| 2026-04-20 17:00 | 39.31261 | -108.99300 | 40081 ft | 459 kts | 239° |
| 2026-04-20 17:01 | 39.27739 | -109.06185 | 40083 ft | 459 kts | 239° |
| 2026-04-20 17:01 | 39.24212 | -109.13062 | 40079 ft | 459 kts | 239° |
| 2026-04-20 17:02 | 39.20679 | -109.19940 | 40083 ft | 460 kts | 239° |
| 2026-04-20 17:02 | 39.17162 | -109.26769 | 40083 ft | 461 kts | 239° |
| 2026-04-20 17:03 | 39.13611 | -109.33650 | 40083 ft | 460 kts | 239° |
| 2026-04-20 17:03 | 39.10060 | -109.40516 | 40083 ft | 461 kts | 239° |
| 2026-04-20 17:04 | 39.06498 | -109.47390 | 40077 ft | 461 kts | 239° |
| 2026-04-20 17:04 | 39.02935 | -109.54252 | 40083 ft | 462 kts | 239° |
| 2026-04-20 17:05 | 38.99359 | -109.61122 | 40081 ft | 462 kts | 239° |
| 2026-04-20 17:05 | 38.95780 | -109.67983 | 40081 ft | 462 kts | 239° |
| 2026-04-20 17:06 | 38.92218 | -109.74798 | 40151 ft | 462 kts | 239° |
| 2026-04-20 17:06 | 38.88629 | -109.81648 | 40165 ft | 462 kts | 239° |
| 2026-04-20 17:07 | 38.85031 | -109.88505 | 40167 ft | 463 kts | 239° |
| 2026-04-20 17:07 | 38.81422 | -109.95364 | 40157 ft | 464 kts | 239° |
| 2026-04-20 17:08 | 38.77812 | -110.02213 | 40138 ft | 464 kts | 239° |
| 2026-04-20 17:08 | 38.74195 | -110.09059 | 40115 ft | 464 kts | 239° |
| 2026-04-20 17:09 | 38.70589 | -110.15869 | 40098 ft | 464 kts | 239° |
| 2026-04-20 17:09 | 38.66955 | -110.22722 | 40085 ft | 466 kts | 239° |
| 2026-04-20 17:10 | 38.63303 | -110.29590 | 40083 ft | 466 kts | 239° |
| 2026-04-20 17:10 | 38.59643 | -110.36460 | 40083 ft | 466 kts | 239° |
| 2026-04-20 17:11 | 38.56003 | -110.43277 | 40086 ft | 466 kts | 239° |
| 2026-04-20 17:11 | 38.52339 | -110.50126 | 40081 ft | 467 kts | 239° |
| 2026-04-20 17:12 | 38.48657 | -110.56996 | 40077 ft | 469 kts | 239° |
| 2026-04-20 17:12 | 38.44963 | -110.63872 | 40222 ft | 470 kts | 239° |
| 2026-04-20 17:13 | 38.41090 | -110.70610 | 40223 ft | 473 kts | 232° |
| 2026-04-20 17:13 | 38.36689 | -110.76804 | 40219 ft | 475 kts | 231° |
| 2026-04-20 17:14 | 38.32147 | -110.82942 | 40192 ft | 476 kts | 231° |
| 2026-04-20 17:14 | 38.27574 | -110.89081 | 40156 ft | 478 kts | 231° |
| 2026-04-20 17:15 | 38.23000 | -110.95231 | 40116 ft | 478 kts | 231° |
| 2026-04-20 17:15 | 38.18430 | -111.01378 | 40073 ft | 478 kts | 231° |
| 2026-04-20 17:16 | 38.13888 | -111.07479 | 40061 ft | 478 kts | 231° |
| 2026-04-20 17:16 | 38.09307 | -111.13620 | 40061 ft | 478 kts | 231° |
| 2026-04-20 17:17 | 38.04719 | -111.19758 | 40057 ft | 479 kts | 230° |
| 2026-04-20 17:17 | 38.00126 | -111.25892 | 40054 ft | 479 kts | 230° |
| 2026-04-20 17:18 | 37.95521 | -111.32027 | 40054 ft | 480 kts | 230° |
| 2026-04-20 17:18 | 37.90941 | -111.38120 | 40070 ft | 480 kts | 230° |
| 2026-04-20 17:19 | 37.86337 | -111.44231 | 40062 ft | 480 kts | 230° |
| 2026-04-20 17:19 | 37.81727 | -111.50338 | 40056 ft | 480 kts | 230° |
| 2026-04-20 17:20 | 37.77110 | -111.56444 | 40045 ft | 480 kts | 230° |
| 2026-04-20 17:20 | 37.72509 | -111.62516 | 40059 ft | 481 kts | 230° |
| 2026-04-20 17:21 | 37.67880 | -111.68616 | 40056 ft | 481 kts | 230° |
| 2026-04-20 17:21 | 37.63240 | -111.74716 | 40085 ft | 481 kts | 230° |
| 2026-04-20 17:22 | 37.58600 | -111.80803 | 40111 ft | 481 kts | 230° |
| 2026-04-20 17:22 | 37.53983 | -111.86850 | 40126 ft | 481 kts | 230° |
| 2026-04-20 17:23 | 37.49331 | -111.92932 | 40128 ft | 481 kts | 230° |
| 2026-04-20 17:23 | 37.44674 | -111.99011 | 40106 ft | 482 kts | 230° |
| 2026-04-20 17:24 | 37.40095 | -112.04974 | 40072 ft | 482 kts | 229° |
| 2026-04-20 17:24 | 37.35865 | -112.11457 | 40047 ft | 479 kts | 236° |
| 2026-04-20 17:25 | 37.31844 | -112.18140 | 40030 ft | 478 kts | 237° |
| 2026-04-20 17:25 | 37.27839 | -112.24815 | 40042 ft | 478 kts | 237° |
| 2026-04-20 17:26 | 37.23860 | -112.31443 | 40032 ft | 478 kts | 237° |
| 2026-04-20 17:26 | 37.19848 | -112.38115 | 40025 ft | 478 kts | 237° |
| 2026-04-20 17:27 | 37.15838 | -112.44772 | 40037 ft | 478 kts | 236° |
| 2026-04-20 17:27 | 37.11849 | -112.51380 | 40030 ft | 478 kts | 236° |
| 2026-04-20 17:28 | 37.07833 | -112.58020 | 40025 ft | 478 kts | 236° |
| 2026-04-20 17:28 | 37.03808 | -112.64662 | 40062 ft | 478 kts | 236° |
| 2026-04-20 17:29 | 36.99783 | -112.71294 | 40095 ft | 478 kts | 236° |
| 2026-04-20 17:29 | 36.95754 | -112.77913 | 40126 ft | 478 kts | 236° |
| 2026-04-20 17:30 | 36.91718 | -112.84531 | 40157 ft | 478 kts | 236° |
| 2026-04-20 17:30 | 36.87715 | -112.91085 | 40176 ft | 477 kts | 236° |
| 2026-04-20 17:31 | 36.83688 | -112.97665 | 40170 ft | 477 kts | 236° |
| 2026-04-20 17:31 | 36.79646 | -113.04258 | 40142 ft | 478 kts | 236° |
| 2026-04-20 17:32 | 36.75598 | -113.10846 | 40107 ft | 479 kts | 236° |
| 2026-04-20 17:32 | 36.71540 | -113.17437 | 40068 ft | 478 kts | 236° |
| 2026-04-20 17:33 | 36.68175 | -113.22893 | 40030 ft | 477 kts | 236° |
| 2026-04-20 17:33 | 36.64124 | -113.29451 | 40002 ft | 477 kts | 235° |
| 2026-04-20 17:34 | 36.59411 | -113.37064 | 39994 ft | 477 kts | 235° |
| 2026-04-20 17:34 | 36.56008 | -113.42549 | 39993 ft | 477 kts | 235° |
| 2026-04-20 17:35 | 36.51956 | -113.49069 | 39990 ft | 476 kts | 235° |
| 2026-04-20 17:35 | 36.47936 | -113.55527 | 39970 ft | 475 kts | 235° |
| 2026-04-20 17:36 | 36.43881 | -113.62027 | 39982 ft | 476 kts | 235° |
| 2026-04-20 17:36 | 36.39818 | -113.68528 | 39965 ft | 476 kts | 235° |
| 2026-04-20 17:37 | 36.35747 | -113.75029 | 39945 ft | 476 kts | 235° |
| 2026-04-20 17:37 | 36.31680 | -113.81511 | 39949 ft | 475 kts | 234° |
| 2026-04-20 17:38 | 36.27618 | -113.87975 | 39937 ft | 474 kts | 234° |
| 2026-04-20 17:38 | 36.23588 | -113.94373 | 39936 ft | 474 kts | 234° |
| 2026-04-20 17:39 | 36.19527 | -114.00809 | 39918 ft | 474 kts | 234° |
| 2026-04-20 17:39 | 36.15462 | -114.07241 | 39922 ft | 474 kts | 234° |
| 2026-04-20 17:40 | 36.11398 | -114.13657 | 39909 ft | 473 kts | 234° |
| 2026-04-20 17:40 | 36.07333 | -114.20065 | 39908 ft | 473 kts | 234° |
| 2026-04-20 17:41 | 36.03283 | -114.26435 | 39898 ft | 473 kts | 234° |
| 2026-04-20 17:41 | 35.99215 | -114.32822 | 39898 ft | 473 kts | 234° |
| 2026-04-20 17:42 | 35.95143 | -114.39205 | 39895 ft | 473 kts | 233° |
| 2026-04-20 17:42 | 35.91078 | -114.45563 | 39908 ft | 471 kts | 233° |
| 2026-04-20 17:43 | 35.87016 | -114.51906 | 39922 ft | 471 kts | 233° |
| 2026-04-20 17:43 | 35.82942 | -114.58255 | 39899 ft | 471 kts | 233° |
| 2026-04-20 17:44 | 35.78877 | -114.64578 | 39939 ft | 471 kts | 233° |
| 2026-04-20 17:44 | 35.74808 | -114.70897 | 39940 ft | 471 kts | 233° |
| 2026-04-20 17:45 | 35.70764 | -114.77166 | 39975 ft | 471 kts | 233° |
| 2026-04-20 17:45 | 35.66684 | -114.83477 | 39976 ft | 471 kts | 233° |
| 2026-04-20 17:46 | 35.62598 | -114.89787 | 39973 ft | 471 kts | 233° |
| 2026-04-20 17:46 | 35.58514 | -114.96083 | 39973 ft | 471 kts | 233° |
| 2026-04-20 17:47 | 35.54431 | -115.02366 | 39988 ft | 470 kts | 233° |
| 2026-04-20 17:47 | 35.50378 | -115.08591 | 39988 ft | 468 kts | 233° |
| 2026-04-20 17:48 | 35.45951 | -115.14468 | 40001 ft | 469 kts | 227° |
| 2026-04-20 17:48 | 35.41435 | -115.20244 | 40000 ft | 469 kts | 229° |
| 2026-04-20 17:49 | 35.36945 | -115.26059 | 40000 ft | 469 kts | 228° |
| 2026-04-20 17:49 | 35.32468 | -115.31874 | 40004 ft | 469 kts | 229° |
| 2026-04-20 17:50 | 35.28026 | -115.37641 | 40004 ft | 467 kts | 229° |
| 2026-04-20 17:50 | 35.23572 | -115.43417 | 40013 ft | 466 kts | 228° |
| 2026-04-20 17:51 | 35.19116 | -115.49187 | 40008 ft | 466 kts | 228° |
| 2026-04-20 17:51 | 35.14659 | -115.54948 | 40015 ft | 466 kts | 228° |
| 2026-04-20 17:52 | 35.10202 | -115.60698 | 40016 ft | 466 kts | 228° |
| 2026-04-20 17:52 | 35.05741 | -115.66394 | 40012 ft | 466 kts | 227° |
| 2026-04-20 17:53 | 35.01251 | -115.72121 | 40012 ft | 467 kts | 227° |
| 2026-04-20 17:53 | 34.96752 | -115.77857 | 40005 ft | 467 kts | 227° |
| 2026-04-20 17:54 | 34.92249 | -115.83589 | 40002 ft | 467 kts | 227° |
| 2026-04-20 17:54 | 34.87777 | -115.89270 | 39996 ft | 467 kts | 227° |
| 2026-04-20 17:55 | 34.83278 | -115.94978 | 40000 ft | 467 kts | 227° |
| 2026-04-20 17:55 | 34.78780 | -116.00675 | 40005 ft | 466 kts | 227° |
| 2026-04-20 17:56 | 34.74298 | -116.06376 | 39972 ft | 465 kts | 227° |
| 2026-04-20 17:56 | 34.72079 | -116.09203 | 39530 ft | 461 kts | 227° |
| 2026-04-20 17:56 | 34.69846 | -116.12048 | 38702 ft | 467 kts | 226° |
| 2026-04-20 17:56 | 34.67585 | -116.14923 | 37729 ft | 472 kts | 226° |
| 2026-04-20 17:57 | 34.65316 | -116.17805 | 37005 ft | 472 kts | 226° |
| 2026-04-20 17:57 | 34.63050 | -116.20682 | 36335 ft | 471 kts | 226° |
| 2026-04-20 17:57 | 34.60805 | -116.23531 | 35381 ft | 464 kts | 227° |
| 2026-04-20 17:57 | 34.58575 | -116.26358 | 34459 ft | 462 kts | 226° |
| 2026-04-20 17:58 | 34.56372 | -116.29148 | 33748 ft | 454 kts | 226° |
| 2026-04-20 17:58 | 34.54202 | -116.31894 | 32906 ft | 447 kts | 226° |
| 2026-04-20 17:58 | 34.52063 | -116.34600 | 32060 ft | 442 kts | 226° |
| 2026-04-20 17:58 | 34.49945 | -116.37276 | 31233 ft | 437 kts | 226° |
| 2026-04-20 17:59 | 34.47857 | -116.39913 | 30463 ft | 431 kts | 226° |
| 2026-04-20 17:59 | 34.45792 | -116.42519 | 29599 ft | 426 kts | 226° |
| 2026-04-20 17:59 | 34.43772 | -116.45071 | 28803 ft | 423 kts | 227° |
| 2026-04-20 17:59 | 34.41896 | -116.47782 | 28340 ft | 417 kts | 235° |
| 2026-04-20 18:00 | 34.40410 | -116.50772 | 27877 ft | 412 kts | 242° |
| 2026-04-20 18:00 | 34.39122 | -116.53857 | 27410 ft | 408 kts | 243° |
| 2026-04-20 18:00 | 34.37871 | -116.56919 | 26943 ft | 404 kts | 243° |
| 2026-04-20 18:00 | 34.36631 | -116.59949 | 26470 ft | 400 kts | 243° |
| 2026-04-20 18:01 | 34.35400 | -116.62948 | 26013 ft | 396 kts | 243° |
| 2026-04-20 18:01 | 34.34184 | -116.65899 | 25679 ft | 389 kts | 243° |
| 2026-04-20 18:01 | 34.32981 | -116.68822 | 25191 ft | 386 kts | 243° |
| 2026-04-20 18:01 | 34.31807 | -116.71736 | 24730 ft | 384 kts | 244° |
| 2026-04-20 18:02 | 34.30647 | -116.74634 | 24261 ft | 381 kts | 244° |
| 2026-04-20 18:02 | 34.29496 | -116.77506 | 23808 ft | 378 kts | 244° |
| 2026-04-20 18:02 | 34.28350 | -116.80360 | 23301 ft | 375 kts | 244° |
| 2026-04-20 18:02 | 34.27214 | -116.83183 | 22828 ft | 371 kts | 244° |
| 2026-04-20 18:03 | 34.26087 | -116.85977 | 22351 ft | 368 kts | 244° |
| 2026-04-20 18:03 | 34.24970 | -116.88747 | 21906 ft | 365 kts | 243° |
| 2026-04-20 18:03 | 34.23874 | -116.91463 | 21444 ft | 363 kts | 243° |
| 2026-04-20 18:03 | 34.22770 | -116.94194 | 20989 ft | 360 kts | 243° |
| 2026-04-20 18:04 | 34.21675 | -116.96904 | 20546 ft | 358 kts | 243° |
| 2026-04-20 18:04 | 34.20736 | -116.99681 | 20098 ft | 356 kts | 250° |
| 2026-04-20 18:04 | 34.19954 | -117.02516 | 19643 ft | 355 kts | 250° |
| 2026-04-20 18:04 | 34.19194 | -117.05349 | 19209 ft | 354 kts | 250° |
| 2026-04-20 18:05 | 34.17674 | -117.10987 | 18286 ft | 351 kts | 250° |
| 2026-04-20 18:05 | 34.16917 | -117.13787 | 17794 ft | 350 kts | 250° |
| 2026-04-20 18:05 | 34.16163 | -117.16575 | 17237 ft | 348 kts | 250° |
| 2026-04-20 18:06 | 34.15408 | -117.19331 | 16878 ft | 344 kts | 249° |
| 2026-04-20 18:06 | 34.14656 | -117.22066 | 16585 ft | 342 kts | 249° |
| 2026-04-20 18:06 | 34.13898 | -117.24812 | 16347 ft | 347 kts | 249° |
| 2026-04-20 18:06 | 34.13155 | -117.27589 | 15821 ft | 349 kts | 250° |
| 2026-04-20 18:07 | 34.12420 | -117.30412 | 15038 ft | 355 kts | 250° |
| 2026-04-20 18:07 | 34.11677 | -117.33263 | 14346 ft | 357 kts | 250° |
| 2026-04-20 18:07 | 34.10929 | -117.36124 | 13712 ft | 357 kts | 250° |
| 2026-04-20 18:07 | 34.10186 | -117.38960 | 13222 ft | 351 kts | 250° |
| 2026-04-20 18:08 | 34.09460 | -117.41728 | 12974 ft | 339 kts | 250° |
| 2026-04-20 18:08 | 34.08765 | -117.44375 | 12847 ft | 324 kts | 250° |
| 2026-04-20 18:08 | 34.08098 | -117.46907 | 12427 ft | 320 kts | 250° |
| 2026-04-20 18:08 | 34.07446 | -117.49461 | 11996 ft | 317 kts | 252° |
| 2026-04-20 18:09 | 34.06991 | -117.52042 | 11657 ft | 313 kts | 257° |
| 2026-04-20 18:09 | 34.06608 | -117.54641 | 11302 ft | 315 kts | 257° |
| 2026-04-20 18:09 | 34.06230 | -117.57246 | 10941 ft | 315 kts | 257° |
| 2026-04-20 18:09 | 34.05851 | -117.59845 | 10573 ft | 314 kts | 257° |
| 2026-04-20 18:10 | 34.05473 | -117.62427 | 10285 ft | 310 kts | 257° |
| 2026-04-20 18:10 | 34.05106 | -117.64939 | 10068 ft | 300 kts | 257° |
| 2026-04-20 18:10 | 34.04750 | -117.67367 | 9600 ft | 288 kts | 257° |
| 2026-04-20 18:10 | 34.04407 | -117.69694 | 9216 ft | 289 kts | 257° |
| 2026-04-20 18:11 | 34.04049 | -117.72115 | 8869 ft | 287 kts | 257° |
| 2026-04-20 18:11 | 34.03704 | -117.74450 | 8544 ft | 285 kts | 257° |
| 2026-04-20 18:11 | 34.03357 | -117.76797 | 8224 ft | 284 kts | 257° |
| 2026-04-20 18:11 | 34.03008 | -117.79147 | 7895 ft | 283 kts | 257° |
| 2026-04-20 18:12 | 34.02659 | -117.81481 | 7569 ft | 282 kts | 257° |
| 2026-04-20 18:12 | 34.02314 | -117.83805 | 7257 ft | 282 kts | 257° |
| 2026-04-20 18:12 | 34.01969 | -117.86125 | 6932 ft | 280 kts | 257° |
| 2026-04-20 18:12 | 34.01625 | -117.88432 | 6604 ft | 279 kts | 257° |
| 2026-04-20 18:13 | 34.01281 | -117.90727 | 6301 ft | 278 kts | 257° |
| 2026-04-20 18:13 | 34.00938 | -117.93017 | 6099 ft | 277 kts | 257° |
| 2026-04-20 18:13 | 34.00595 | -117.95302 | 5934 ft | 277 kts | 258° |
| 2026-04-20 18:13 | 34.00258 | -117.97553 | 5805 ft | 276 kts | 257° |
| 2026-04-20 18:14 | 33.99918 | -117.99831 | 5683 ft | 276 kts | 257° |
| 2026-04-20 18:14 | 33.99579 | -118.02102 | 5574 ft | 276 kts | 257° |
| 2026-04-20 18:14 | 33.99239 | -118.04373 | 5417 ft | 276 kts | 258° |
| 2026-04-20 18:14 | 33.98899 | -118.06631 | 5236 ft | 269 kts | 258° |
| 2026-04-20 18:15 | 33.98567 | -118.08818 | 5021 ft | 261 kts | 257° |
| 2026-04-20 18:15 | 33.98245 | -118.10946 | 4783 ft | 254 kts | 258° |
| 2026-04-20 18:15 | 33.97886 | -118.13000 | 4533 ft | 247 kts | 256° |
| 2026-04-20 18:15 | 33.97599 | -118.15025 | 4233 ft | 244 kts | 262° |
| 2026-04-20 18:16 | 33.97400 | -118.17057 | 3895 ft | 244 kts | 262° |
| 2026-04-20 18:16 | 33.97191 | -118.19077 | 3556 ft | 243 kts | 262° |
| 2026-04-20 18:16 | 33.96991 | -118.21066 | 3221 ft | 237 kts | 265° |
| 2026-04-20 18:16 | 33.96935 | -118.23035 | 2907 ft | 233 kts | 269° |
| 2026-04-20 18:17 | 33.96823 | -118.24921 | 2607 ft | 220 kts | 261° |
| 2026-04-20 18:17 | 33.96594 | -118.26694 | 2331 ft | 208 kts | 261° |
| 2026-04-20 18:17 | 33.96421 | -118.28365 | 2071 ft | 192 kts | 262° |
| 2026-04-20 18:17 | 33.96273 | -118.29905 | 1817 ft | 179 kts | 261° |
| 2026-04-20 18:18 | 33.96124 | -118.31331 | 1577 ft | 164 kts | 261° |
| 2026-04-20 18:18 | 33.95987 | -118.32648 | 1364 ft | 153 kts | 262° |
| 2026-04-20 18:18 | 33.95863 | -118.33865 | 1159 ft | 142 kts | 261° |
| 2026-04-20 18:18 | 33.95784 | -118.34633 | 1037 ft | 137 kts | 262° |
| 2026-04-20 18:19 | 33.95666 | -118.35771 | 846 ft | 139 kts | 262° |
| 2026-04-20 18:19 | 33.95545 | -118.36935 | 691 ft | 140 kts | 262° |
| 2026-04-20 18:19 | 33.95436 | -118.38099 | 487 ft | 139 kts | 265° |
| 2026-04-20 18:19 | 33.95276 | -118.39606 | 233 ft | 136 kts | 262° |
| 2026-04-20 18:20 | 33.95197 | -118.40358 | 115 ft | 136 kts | 263° |
| 2026-04-20 18:20 | 33.95087 | -118.41414 | 100 ft | 111 kts | 263° |
| 2026-04-20 18:20 | 33.95022 | -118.41996 | 102 ft | 27 kts | 257° |
| 2026-04-20 18:20 | 33.94953 | -118.42174 | 103 ft | 22 kts | 229° |
| 2026-04-20 18:21 | 33.94934 | -118.42199 | 101 ft | 1 kts | 227° |
| 2026-04-20 18:21 | 33.94890 | -118.42253 | 102 ft | 11 kts | 222° |
| 2026-04-20 18:21 | 33.94824 | -118.42286 | 105 ft | 10 kts | 184° |
| 2026-04-20 18:21 | 33.94747 | -118.42277 | 104 ft | 13 kts | 174° |
| 2026-04-20 18:22 | 33.94644 | -118.42257 | 102 ft | 15 kts | 156° |
| 2026-04-20 18:22 | 33.94612 | -118.42179 | 102 ft | 9 kts | 85° |
| 2026-04-20 18:22 | 33.94620 | -118.42092 | 101 ft | 12 kts | 84° |
| 2026-04-20 18:22 | 33.94627 | -118.41980 | 102 ft | 15 kts | 88° |
| 2026-04-20 18:23 | 33.94633 | -118.41848 | 101 ft | 17 kts | 83° |
| 2026-04-20 18:23 | 33.94649 | -118.41695 | 100 ft | 20 kts | 83° |
| 2026-04-20 18:23 | 33.94667 | -118.41521 | 101 ft | 22 kts | 82° |